Terminal Aerodrome Forecast
Issued by NWS Sterling, VA

Current Version | Previous Version | Text Only | Print | Product List | Glossary Off
Versions: 1 2 3 4 5 6 7 8 9 10 11 12 13 14 15 16 17 18 19 20 21 22 23 24 25 26 27 28

000
FTUS41 KLWX 150200 AAA
TAFDCA
TAF AMD
KDCA 150233Z 1503/1524 19009KT P6SM SCT100 OVC200
     FM150300 18012G21KT P6SM OVC030
     FM150900 17011G21KT 6SM -SHRA OVC015
     FM151500 18016G29KT 5SM -SHRA OVC010
     FM151800 20015G26KT 5SM -SHRA OVC010
     FM152000 29014G26KT 5SM -SHRA OVC008
     FM152100 32015G27KT 6SM -SHRA OVC015=

USA.gov is the U.S. government's official web portal to all federal, state and local government web resources and services.